Bellingham International Airport Bellingham US
ICAO: KBLI
IATA: BLI
Category: Medium
Scheduled Services: Yes

Elevation: 170 ft
TransAlt. 18000 ft.

Airport Communications:
VICTORIA APP/DEP:132.7
ATIS:134.45
CTAF:124.9
GND:127.4
SEATTLE RDO:122.15
TWR:124.9
UNICOM:122.95

KBLI Zoom In..

If Map Doesn't Load, Click Here

Runways:

(A) RW 16 length 6701 ft width 150 ft
ILS 108.50 / hdg 160

(B) RW 34 length 6701 ft width 150 ft
---- / hdg 340

Location; KBLI
Day. 26 / Time. 11.21 Zulu
* Altimeter: 30.23
* Temperature: 08° c. 46.4°f.
* Wind from: 000° Speed 00 kn.
Dewpoint: 06° c.
Visibility: 2 Statute Miles.
Clouds: Broken 500 ft.
Conditions: Mist.

KBLI 261121Z AUTO 00000KT 2SM BR BKN005 08/06 A3023 RMK AO2 T00780061


Wind - Calm.

 
 
jpsmedia.com for Web Design worldairports.se 2018   terms of use